createdAt,value
2019-02-15T00:02:11.470Z,11.23
2019-02-15T00:04:40.415Z,11.50
2019-02-15T00:07:08.788Z,10.70
2019-02-15T00:09:37.185Z,11.10
2019-02-15T00:12:06.395Z,11.00
2019-02-15T00:14:43.735Z,12.47
2019-02-15T00:17:12.905Z,12.00
2019-02-15T00:19:43.155Z,11.50
2019-02-15T00:22:11.558Z,11.30
2019-02-15T00:24:39.956Z,11.80
2019-02-15T00:27:08.919Z,10.80
2019-02-15T00:29:37.423Z,11.23
2019-02-15T00:32:06.041Z,11.40
2019-02-15T00:34:34.491Z,11.30
2019-02-15T00:37:03.044Z,11.83
2019-02-15T00:39:31.445Z,11.43
2019-02-15T00:42:00.069Z,11.60
2019-02-15T00:44:28.469Z,11.60
2019-02-15T00:47:07.242Z,11.83
2019-02-15T00:49:37.541Z,11.47
2019-02-15T00:52:10.746Z,11.30
2019-02-15T00:54:46.815Z,11.43
2019-02-15T00:57:19.840Z,11.60
2019-02-15T00:59:55.760Z,12.07
2019-02-15T01:02:26.004Z,11.63
2019-02-15T01:04:58.781Z,11.67
2019-02-15T01:07:40.751Z,12.03
2019-02-15T01:10:10.886Z,11.60
2019-02-15T01:12:40.908Z,12.00
2019-02-15T01:15:09.301Z,11.97
2019-02-15T01:17:38.451Z,12.33
2019-02-15T01:20:07.449Z,12.27
2019-02-15T01:22:35.942Z,12.73
2019-02-15T01:25:05.757Z,11.23
2019-02-15T01:27:35.783Z,11.37
2019-02-15T01:30:13.633Z,10.97
2019-02-15T01:32:56.265Z,11.57
2019-02-15T01:35:29.450Z,11.43
2019-02-15T01:37:59.475Z,12.43
2019-02-15T01:40:38.295Z,11.53
2019-02-15T01:43:11.323Z,11.70
2019-02-15T01:45:41.627Z,11.67
2019-02-15T01:48:10.088Z,11.33
2019-02-15T01:50:38.782Z,11.05
2019-02-15T01:53:07.246Z,11.70
2019-02-15T01:55:36.060Z,11.67
2019-02-15T01:58:04.486Z,11.23
2019-02-15T02:00:33.592Z,10.90
2019-02-15T02:03:02.327Z,11.17
2019-02-15T02:05:30.711Z,10.97
2019-02-15T02:07:59.383Z,10.43
2019-02-15T02:10:27.778Z,10.80
2019-02-15T02:12:56.179Z,11.13
2019-02-15T02:15:24.574Z,11.13
2019-02-15T02:17:53.210Z,11.07
2019-02-15T02:20:21.895Z,10.93
2019-02-15T02:22:50.301Z,11.07
2019-02-15T02:25:19.060Z,11.47
2019-02-15T02:27:47.753Z,12.10
2019-02-15T02:30:16.434Z,10.63
2019-02-15T02:32:45.123Z,11.13
2019-02-15T02:35:13.624Z,11.27
2019-02-15T02:37:41.985Z,11.57
2019-02-15T02:40:10.477Z,11.23
2019-02-15T02:42:38.869Z,10.33
2019-02-15T02:45:08.437Z,10.93
2019-02-15T02:47:36.827Z,11.07
2019-02-15T02:50:07.352Z,10.47
2019-02-15T02:52:35.755Z,10.50
2019-02-15T02:55:05.139Z,9.90
2019-02-15T02:57:34.028Z,10.80
2019-02-15T03:00:02.650Z,10.53
2019-02-15T03:02:31.028Z,10.80
2019-02-15T03:04:59.793Z,10.70
2019-02-15T03:07:28.170Z,10.97
2019-02-15T03:09:56.576Z,10.30
2019-02-15T03:12:24.972Z,10.23
2019-02-15T03:14:53.351Z,10.00
2019-02-15T03:17:21.819Z,10.97
2019-02-15T03:19:50.244Z,10.90
2019-02-15T03:22:18.640Z,11.60
2019-02-15T03:24:47.079Z,10.00
2019-02-15T03:27:15.435Z,10.30
2019-02-15T03:29:43.891Z,10.30
2019-02-15T03:32:12.278Z,10.20
2019-02-15T03:34:40.798Z,10.60
2019-02-15T03:37:26.064Z,9.73
2019-02-15T03:39:56.441Z,9.83
2019-02-15T03:42:25.449Z,10.33
2019-02-15T03:44:53.827Z,10.13
2019-02-15T03:47:24.047Z,10.07
2019-02-15T03:49:52.434Z,9.40
2019-02-15T03:52:20.830Z,9.30
2019-02-15T03:54:49.486Z,9.83
2019-02-15T03:57:17.996Z,10.23
2019-02-15T03:59:46.448Z,10.00
2019-02-15T04:02:14.931Z,9.90
2019-02-15T04:04:43.616Z,9.77
2019-02-15T04:07:12.610Z,9.13
2019-02-15T04:09:41.252Z,9.50
2019-02-15T04:12:09.636Z,9.30
2019-02-15T04:14:38.015Z,9.47
2019-02-15T04:17:06.404Z,8.90
2019-02-15T04:19:35.126Z,10.83
2019-02-15T04:22:03.502Z,9.40
2019-02-15T04:24:32.489Z,10.10
2019-02-15T04:27:00.862Z,9.90
2019-02-15T04:29:29.413Z,9.40
2019-02-15T04:31:57.802Z,9.60
2019-02-15T04:34:26.173Z,9.03
2019-02-15T04:36:55.096Z,9.33
2019-02-15T04:39:23.706Z,9.60
2019-02-15T04:41:52.087Z,9.00
2019-02-15T04:44:20.476Z,9.37
2019-02-15T04:46:50.094Z,9.17
2019-02-15T04:49:18.756Z,9.50
2019-02-15T04:51:47.241Z,9.00
2019-02-15T04:54:15.909Z,9.47
2019-02-15T04:56:44.353Z,8.80
2019-02-15T04:59:12.768Z,10.07
2019-02-15T05:01:41.132Z,8.83
2019-02-15T05:04:09.825Z,9.43
2019-02-15T05:06:38.328Z,10.10
2019-02-15T05:09:06.704Z,9.17
2019-02-15T05:11:35.475Z,9.40
2019-02-15T05:14:03.862Z,9.07
2019-02-15T05:16:32.233Z,8.83
2019-02-15T05:19:00.620Z,8.90
2019-02-15T05:21:29.314Z,8.90
2019-02-15T05:23:57.982Z,9.20
2019-02-15T05:26:26.616Z,10.13
2019-02-15T05:28:55.003Z,9.30
2019-02-15T05:31:23.380Z,9.00
2019-02-15T05:33:52.013Z,8.83
2019-02-15T05:36:20.386Z,9.13
2019-02-15T05:38:48.783Z,8.70
2019-02-15T05:41:17.167Z,8.50
2019-02-15T05:43:45.575Z,10.90
2019-02-15T05:46:14.210Z,8.90
2019-02-15T05:48:42.590Z,8.10
2019-02-15T05:51:10.994Z,8.33
2019-02-15T05:53:39.363Z,8.97
2019-02-15T05:56:07.759Z,7.70
2019-02-15T05:58:36.155Z,7.80
2019-02-15T06:01:04.924Z,9.00
2019-02-15T06:03:33.333Z,9.50
2019-02-15T06:06:01.694Z,8.40
2019-02-15T06:08:31.340Z,8.73
2019-02-15T06:11:07.392Z,8.73
2019-02-15T06:13:30.297Z,8.67
2019-02-15T06:15:58.665Z,8.00
2019-02-15T06:18:27.043Z,8.03
2019-02-15T06:20:55.430Z,7.93
2019-02-15T06:23:24.055Z,9.90
2019-02-15T06:25:52.550Z,8.33
2019-02-15T06:28:20.897Z,7.90
2019-02-15T06:30:49.304Z,9.27
2019-02-15T06:33:17.840Z,8.70
2019-02-15T06:35:46.366Z,7.80
2019-02-15T06:38:14.767Z,7.77
2019-02-15T06:40:43.142Z,8.00
2019-02-15T06:43:11.669Z,8.30
2019-02-15T06:45:40.080Z,8.57
2019-02-15T06:48:08.432Z,8.37
2019-02-15T06:50:36.815Z,8.60
2019-02-15T06:53:05.206Z,9.50
2019-02-15T06:55:33.844Z,9.17
2019-02-15T06:58:02.311Z,10.80
2019-02-15T07:00:34.985Z,8.10
2019-02-15T07:03:19.673Z,9.20
2019-02-15T07:05:48.047Z,7.20
2019-02-15T07:08:16.426Z,7.27
2019-02-15T07:10:44.814Z,7.80
2019-02-15T07:13:13.190Z,7.77
2019-02-15T07:15:41.582Z,7.10
2019-02-15T07:18:10.247Z,6.97
2019-02-15T07:20:38.640Z,7.20
2019-02-15T07:23:07.018Z,7.07
2019-02-15T07:25:35.403Z,7.90
2019-02-15T07:28:03.789Z,7.23
2019-02-15T07:30:32.163Z,7.17
2019-02-15T07:33:00.851Z,6.90
2019-02-15T07:35:29.226Z,7.10
2019-02-15T07:37:57.891Z,7.57
2019-02-15T07:40:26.583Z,7.93
2019-02-15T07:42:55.194Z,6.97
2019-02-15T07:45:23.843Z,7.30
2019-02-15T07:47:52.236Z,7.17
2019-02-15T07:50:20.914Z,7.40
2019-02-15T07:52:49.302Z,7.00
2019-02-15T07:55:18.076Z,7.10
2019-02-15T07:57:46.461Z,7.37
2019-02-15T08:00:15.764Z,8.13
2019-02-15T08:02:44.146Z,7.03
2019-02-15T08:05:13.160Z,7.07
2019-02-15T08:07:41.556Z,7.00
2019-02-15T08:10:11.504Z,7.27
2019-02-15T08:12:39.906Z,6.93
2019-02-15T08:15:10.543Z,7.60
2019-02-15T08:17:38.943Z,7.20
2019-02-15T08:20:10.255Z,7.23
2019-02-15T08:22:38.632Z,7.33
2019-02-15T08:25:08.095Z,7.40
2019-02-15T08:27:36.472Z,7.43
2019-02-15T08:30:07.514Z,7.53
2019-02-15T08:32:35.892Z,8.23
2019-02-15T08:35:05.259Z,8.27
2019-02-15T08:37:33.756Z,8.20
2019-02-15T08:40:02.129Z,8.60
2019-02-15T08:42:30.509Z,8.00
2019-02-15T08:44:58.908Z,9.33
2019-02-15T08:47:27.655Z,7.83
2019-02-15T08:49:56.046Z,9.77
2019-02-15T08:52:24.422Z,7.70
2019-02-15T08:54:53.246Z,8.63
2019-02-15T08:57:21.672Z,8.03
2019-02-15T08:59:50.282Z,8.47
2019-02-15T09:02:22.428Z,8.27
2019-02-15T09:04:50.827Z,7.80
2019-02-15T09:07:19.497Z,7.97
2019-02-15T09:09:47.999Z,8.03
2019-02-15T09:12:16.764Z,8.50
2019-02-15T09:14:45.170Z,8.70
2019-02-15T09:17:13.548Z,8.90
2019-02-15T09:19:42.144Z,8.33
2019-02-15T09:22:10.799Z,8.90
2019-02-15T09:24:39.488Z,7.70
2019-02-15T09:27:09.815Z,7.97
2019-02-15T09:29:38.210Z,8.17
2019-02-15T09:32:06.593Z,8.10
2019-02-15T09:34:35.257Z,7.77
2019-02-15T09:37:03.644Z,8.40
2019-02-15T09:39:32.323Z,8.83
2019-02-15T09:42:00.696Z,8.47
2019-02-15T09:44:29.399Z,8.90
2019-02-15T09:46:57.771Z,8.00
2019-02-15T09:49:26.231Z,8.77
2019-02-15T09:51:55.570Z,9.50
2019-02-15T09:54:24.231Z,9.57
2019-02-15T09:56:52.607Z,9.10
2019-02-15T09:59:21.008Z,9.43
2019-02-15T10:01:49.677Z,9.67
2019-02-15T10:04:18.675Z,9.10
2019-02-15T10:06:47.292Z,8.90
2019-02-15T10:09:15.717Z,9.13
2019-02-15T10:11:44.113Z,9.73
2019-02-15T10:14:12.902Z,9.37
2019-02-15T10:16:41.593Z,10.23
2019-02-15T10:19:10.223Z,9.60
2019-02-15T10:21:38.614Z,9.73
2019-02-15T10:24:07.009Z,10.03
2019-02-15T10:26:35.391Z,9.80
2019-02-15T10:29:03.934Z,9.13
2019-02-15T10:31:32.320Z,10.17
2019-02-15T10:34:01.077Z,9.77
2019-02-15T10:36:29.458Z,9.33
2019-02-15T10:38:57.854Z,9.60
2019-02-15T10:41:26.242Z,9.67
2019-02-15T10:43:54.623Z,9.50
2019-02-15T10:46:23.026Z,9.17
2019-02-15T10:48:51.396Z,9.90
2019-02-15T10:51:20.129Z,9.00
2019-02-15T10:53:48.809Z,9.13
2019-02-15T10:56:17.498Z,8.50
2019-02-15T10:58:47.406Z,8.00
2019-02-15T11:01:16.095Z,8.70
2019-02-15T11:03:44.475Z,8.67
2019-02-15T11:06:12.870Z,8.63
2019-02-15T11:08:41.240Z,9.63
2019-02-15T11:11:09.708Z,8.63
2019-02-15T11:13:38.498Z,9.10
2019-02-15T11:16:06.885Z,9.00
2019-02-15T11:18:35.407Z,8.97
2019-02-15T11:21:04.063Z,9.50
2019-02-15T11:23:32.445Z,9.20
2019-02-15T11:26:00.842Z,8.83
2019-02-15T11:28:29.500Z,9.27
2019-02-15T11:30:57.963Z,8.40
2019-02-15T11:33:26.663Z,8.80
2019-02-15T11:35:55.345Z,8.53
2019-02-15T11:38:23.739Z,9.57
2019-02-15T11:40:52.414Z,9.67
2019-02-15T11:43:21.104Z,9.63
2019-02-15T11:45:49.478Z,9.73
2019-02-15T11:48:18.098Z,9.50
2019-02-15T11:50:46.491Z,9.67
2019-02-15T11:53:15.366Z,9.60
2019-02-15T11:55:44.020Z,9.17
2019-02-15T11:58:12.708Z,9.57
2019-02-15T12:00:41.391Z,8.60
2019-02-15T12:03:09.777Z,9.50
2019-02-15T12:05:38.166Z,9.40
2019-02-15T12:08:06.604Z,9.37
2019-02-15T12:10:35.130Z,9.30
2019-02-15T12:13:03.622Z,9.53
2019-02-15T12:15:32.096Z,9.40
2019-02-15T12:18:00.561Z,10.33
2019-02-15T12:20:29.242Z,9.87
2019-02-15T12:22:57.623Z,9.10
2019-02-15T12:25:26.018Z,9.27
2019-02-15T12:27:54.388Z,9.40
2019-02-15T12:30:22.787Z,9.47
2019-02-15T12:32:51.214Z,8.83
2019-02-15T12:35:19.565Z,8.60
2019-02-15T12:37:48.209Z,11.30
2019-02-15T12:40:16.607Z,10.60
2019-02-15T12:42:45.074Z,9.77
2019-02-15T12:45:16.736Z,9.83
2019-02-15T12:47:45.133Z,10.57
2019-02-15T12:50:21.780Z,9.60
2019-02-15T12:52:50.240Z,9.27
2019-02-15T12:55:18.640Z,7.93
2019-02-15T12:57:47.057Z,8.33
2019-02-15T13:00:18.510Z,9.30
2019-02-15T13:02:47.149Z,8.93
2019-02-15T13:05:15.833Z,7.97
2019-02-15T13:07:44.525Z,9.10
2019-02-15T13:10:16.696Z,7.87
2019-02-15T13:12:45.079Z,9.33
2019-02-15T13:15:14.006Z,8.97
2019-02-15T13:17:42.656Z,8.13
2019-02-15T13:20:11.401Z,7.90
2019-02-15T13:22:40.225Z,7.87
2019-02-15T13:25:09.475Z,7.77
2019-02-15T13:27:38.066Z,8.40
2019-02-15T13:30:09.675Z,7.77
2019-02-15T13:32:38.050Z,8.20
2019-02-15T13:35:09.461Z,8.60
2019-02-15T13:37:38.036Z,7.97
2019-02-15T13:40:08.824Z,8.73
2019-02-15T13:42:37.341Z,8.43
2019-02-15T13:45:08.728Z,8.23
2019-02-15T13:47:37.127Z,8.63
2019-02-15T13:50:08.826Z,8.27
2019-02-15T13:52:37.268Z,8.30
2019-02-15T13:55:06.999Z,7.37
2019-02-15T13:57:35.419Z,8.07
2019-02-15T14:00:05.138Z,7.63
2019-02-15T14:02:33.520Z,7.40
2019-02-15T14:05:01.917Z,7.30
2019-02-15T14:07:30.116Z,7.33
2019-02-15T14:10:00.325Z,7.00
2019-02-15T14:12:28.724Z,7.00
2019-02-15T14:14:57.102Z,7.30
2019-02-15T14:17:25.578Z,8.13
2019-02-15T14:19:54.154Z,8.10
2019-02-15T14:22:22.686Z,8.87
2019-02-15T14:24:51.281Z,8.93
2019-02-15T14:27:19.742Z,8.60
2019-02-15T14:29:48.170Z,7.00
2019-02-15T14:32:19.649Z,8.43
2019-02-15T14:34:48.113Z,8.63
2019-02-15T14:37:16.450Z,8.70
2019-02-15T14:39:44.847Z,8.33
2019-02-15T14:42:13.236Z,9.40
2019-02-15T14:44:41.986Z,9.00
2019-02-15T14:47:10.377Z,9.00
2019-02-15T14:49:38.793Z,8.30
2019-02-15T14:52:07.175Z,8.83
2019-02-15T14:54:35.559Z,7.87
2019-02-15T14:57:05.187Z,8.33
2019-02-15T14:59:33.647Z,8.83
2019-02-15T15:02:02.040Z,7.87
2019-02-15T15:04:30.509Z,8.07
2019-02-15T15:06:58.894Z,7.67
2019-02-15T15:09:27.364Z,7.87
2019-02-15T15:11:55.739Z,8.37
2019-02-15T15:14:24.124Z,8.23
2019-02-15T15:16:52.576Z,8.40
2019-02-15T15:19:20.955Z,7.73
2019-02-15T15:21:49.353Z,10.50
2019-02-15T15:24:17.737Z,8.83
2019-02-15T15:26:46.146Z,8.67
2019-02-15T15:29:14.606Z,7.80
2019-02-15T15:31:43.007Z,8.00
2019-02-15T15:34:11.397Z,7.90
2019-02-15T15:36:39.778Z,8.30
2019-02-15T15:39:08.360Z,7.80
2019-02-15T15:41:36.734Z,9.27
2019-02-15T15:44:06.733Z,8.37
2019-02-15T15:46:35.123Z,8.27
2019-02-15T15:49:03.495Z,8.80
2019-02-15T15:51:31.952Z,8.43
2019-02-15T15:54:00.375Z,9.67
2019-02-15T15:56:28.805Z,9.10
2019-02-15T15:58:57.312Z,8.00
2019-02-15T16:01:25.735Z,9.00
2019-02-15T16:03:54.148Z,8.97
2019-02-15T16:06:24.721Z,8.63
2019-02-15T16:08:52.661Z,8.53
2019-02-15T16:11:21.091Z,9.00
2019-02-15T16:13:51.030Z,9.87
2019-02-15T16:16:19.402Z,9.30
2019-02-15T16:18:48.016Z,7.63
2019-02-15T16:21:16.893Z,8.23
2019-02-15T16:23:45.419Z,9.37
2019-02-15T16:26:13.802Z,9.00
2019-02-15T16:28:42.184Z,7.80
2019-02-15T16:31:10.599Z,10.03
2019-02-15T16:33:39.015Z,8.07
2019-02-15T16:36:07.381Z,8.40
2019-02-15T16:38:35.770Z,7.77
2019-02-15T16:41:05.075Z,7.43
2019-02-15T16:43:33.459Z,8.00
2019-02-15T16:46:02.124Z,7.70
2019-02-15T16:48:30.513Z,8.30
2019-02-15T16:50:59.215Z,8.03
2019-02-15T16:53:27.596Z,8.03
2019-02-15T16:55:55.962Z,9.73
2019-02-15T16:58:24.356Z,7.40
2019-02-15T17:00:52.743Z,7.27
2019-02-15T17:03:26.222Z,9.57
2019-02-15T17:05:55.028Z,8.03
2019-02-15T17:08:23.566Z,7.00
2019-02-15T17:10:51.949Z,7.87
2019-02-15T17:13:20.336Z,7.67
2019-02-15T17:15:48.727Z,7.10
2019-02-15T17:18:17.129Z,7.00
2019-02-15T17:20:45.554Z,7.40
2019-02-15T17:23:13.948Z,11.60
2019-02-15T17:25:42.341Z,8.20
2019-02-15T17:28:11.069Z,6.87
2019-02-15T17:30:39.531Z,7.03
2019-02-15T17:33:08.188Z,7.70
2019-02-15T17:35:36.573Z,6.90
2019-02-15T17:38:05.022Z,7.00
2019-02-15T17:40:33.421Z,7.00
2019-02-15T17:43:01.802Z,7.93
2019-02-15T17:45:30.191Z,8.57
2019-02-15T17:47:58.566Z,8.27
2019-02-15T17:50:26.946Z,7.33
2019-02-15T17:52:55.345Z,8.30
2019-02-15T17:55:23.733Z,7.90
2019-02-15T17:57:52.127Z,8.10
2019-02-15T18:00:22.196Z,7.17
2019-02-15T18:02:50.584Z,7.53
2019-02-15T18:05:18.963Z,8.53
2019-02-15T18:07:51.433Z,7.80
2019-02-15T18:10:19.816Z,8.10
2019-02-15T18:12:48.198Z,8.20
2019-02-15T18:15:16.641Z,8.63
2019-02-15T18:17:45.365Z,8.10
2019-02-15T18:20:13.735Z,8.07
2019-02-15T18:22:42.230Z,7.77
2019-02-15T18:25:10.720Z,7.90
2019-02-15T18:27:39.598Z,8.30
2019-02-15T18:30:13.077Z,8.33
2019-02-15T18:32:43.092Z,8.30
2019-02-15T18:35:11.478Z,28.53
2019-02-15T18:37:39.873Z,8.37
2019-02-15T18:40:10.095Z,8.47
2019-02-15T18:42:38.461Z,8.13
2019-02-15T18:45:18.943Z,7.33
2019-02-15T18:47:44.721Z,8.47
2019-02-15T18:50:13.189Z,7.80
2019-02-15T18:52:41.797Z,7.50
2019-02-15T18:55:11.116Z,8.20
2019-02-15T18:57:39.507Z,8.00
2019-02-15T19:00:16.422Z,8.00
2019-02-15T19:02:49.550Z,8.40
2019-02-15T19:05:17.921Z,8.87
2019-02-15T19:07:46.367Z,8.60
2019-02-15T19:10:22.593Z,8.67
2019-02-15T19:12:50.970Z,8.10
2019-02-15T19:15:19.648Z,8.50
2019-02-15T19:17:48.024Z,7.80
2019-02-15T19:20:17.348Z,8.00
2019-02-15T19:22:45.892Z,8.20
2019-02-15T19:25:15.905Z,8.90
2019-02-15T19:27:44.327Z,9.17
2019-02-15T19:30:16.069Z,8.57
2019-02-15T19:32:44.549Z,9.50
2019-02-15T19:35:13.349Z,9.43
2019-02-15T19:37:41.756Z,8.97
2019-02-15T19:40:12.786Z,9.20
2019-02-15T19:42:42.696Z,9.57
2019-02-15T19:45:12.237Z,10.20
2019-02-15T19:47:40.610Z,9.70
2019-02-15T19:50:11.855Z,9.77
2019-02-15T19:52:40.707Z,9.83
2019-02-15T19:55:10.341Z,10.37
2019-02-15T19:57:38.723Z,9.43
2019-02-15T20:00:15.636Z,9.30
2019-02-15T20:02:44.010Z,9.30
2019-02-15T20:05:12.728Z,10.10
2019-02-15T20:07:41.128Z,9.03
2019-02-15T20:10:12.664Z,8.47
2019-02-15T20:12:41.113Z,8.90
2019-02-15T20:15:12.591Z,9.63
2019-02-15T20:17:40.972Z,9.33
2019-02-15T20:20:11.801Z,8.93
2019-02-15T20:22:40.407Z,9.97
2019-02-15T20:25:12.884Z,9.20
2019-02-15T20:27:41.270Z,10.70
2019-02-15T20:30:15.668Z,10.00
2019-02-15T20:32:44.073Z,10.03
2019-02-15T20:35:13.616Z,10.60
2019-02-15T20:37:42.119Z,9.20
2019-02-15T20:40:12.206Z,10.27
2019-02-15T20:42:42.915Z,9.93
2019-02-15T20:45:16.284Z,9.90
2019-02-15T20:47:44.669Z,10.03
2019-02-15T20:50:14.030Z,9.20
2019-02-15T20:52:42.437Z,10.63
2019-02-15T20:55:13.048Z,9.83
2019-02-15T20:57:41.489Z,9.63
2019-02-15T21:00:13.001Z,12.40
2019-02-15T21:02:41.411Z,10.30
2019-02-15T21:05:12.871Z,10.27
2019-02-15T21:07:41.494Z,9.70
2019-02-15T21:10:14.515Z,10.67
2019-02-15T21:12:42.910Z,10.10
2019-02-15T21:15:13.445Z,10.43
2019-02-15T21:17:42.102Z,11.57
2019-02-15T21:20:12.231Z,11.77
2019-02-15T21:22:40.624Z,10.03
2019-02-15T21:25:12.156Z,10.37
2019-02-15T21:27:40.558Z,10.73
2019-02-15T21:30:14.018Z,10.23
2019-02-15T21:32:42.415Z,9.67
2019-02-15T21:35:10.969Z,10.33
2019-02-15T21:37:39.380Z,11.00
2019-02-15T21:40:13.201Z,11.50
2019-02-15T21:42:41.689Z,11.57
2019-02-15T21:45:13.487Z,12.60
2019-02-15T21:47:42.171Z,11.90
2019-02-15T21:50:17.271Z,11.00
2019-02-15T21:52:44.191Z,11.10
2019-02-15T21:55:14.073Z,10.60
2019-02-15T21:57:42.462Z,10.57
2019-02-15T22:00:22.399Z,10.40
2019-02-15T22:02:51.020Z,10.37
2019-02-15T22:05:19.395Z,11.40
2019-02-15T22:07:47.805Z,11.37
2019-02-15T22:10:18.099Z,11.20
2019-02-15T22:12:48.021Z,11.80
2019-02-15T22:15:19.354Z,11.97
2019-02-15T22:17:48.092Z,10.97
2019-02-15T22:20:26.018Z,11.20
2019-02-15T22:22:47.985Z,12.23
2019-02-15T22:25:16.383Z,11.67
2019-02-15T22:27:44.792Z,12.20
2019-02-15T22:30:20.079Z,12.63
2019-02-15T22:32:48.474Z,12.73
2019-02-15T22:35:16.864Z,12.87
2019-02-15T22:37:45.257Z,12.03
2019-02-15T22:40:31.553Z,11.97
2019-02-15T22:43:08.670Z,12.20
2019-02-15T22:45:37.085Z,13.23
2019-02-15T22:48:05.586Z,11.97
2019-02-15T22:50:36.296Z,13.23
2019-02-15T22:53:04.084Z,13.40
2019-02-15T22:55:32.478Z,12.70
2019-02-15T22:58:04.466Z,12.43
2019-02-15T23:00:40.434Z,13.00
2019-02-15T23:03:08.849Z,13.07
2019-02-15T23:05:37.236Z,13.30
2019-02-15T23:08:05.622Z,13.30
2019-02-15T23:10:34.026Z,12.83
2019-02-15T23:13:02.412Z,13.50
2019-02-15T23:15:31.034Z,13.50
2019-02-15T23:17:59.442Z,12.90
2019-02-15T23:20:28.945Z,13.30
2019-02-15T23:22:57.338Z,13.17
2019-02-15T23:25:27.293Z,13.60
2019-02-15T23:27:55.683Z,13.43
2019-02-15T23:30:24.100Z,13.70
2019-02-15T23:32:52.726Z,13.23
2019-02-15T23:35:21.125Z,14.57
2019-02-15T23:37:49.748Z,13.13
2019-02-15T23:40:18.153Z,13.83
2019-02-15T23:42:46.540Z,13.50
2019-02-15T23:45:14.920Z,14.97
2019-02-15T23:47:46.837Z,14.10
2019-02-15T23:50:15.445Z,14.37
2019-02-15T23:52:43.981Z,12.63
2019-02-15T23:55:12.383Z,14.90
2019-02-15T23:57:40.765Z,14.87
